sensor_id;sensor_type;location;lat;lon;timestamp;pressure;altitude;pressure_sealevel;temperature;humidity
53246;BME280;39569;51.090;-1.786;2023-05-16T00:00:39;101793.78;;;17.48;40.22
53246;BME280;39569;51.090;-1.786;2023-05-16T00:03:07;101795.84;;;17.32;40.80
53246;BME280;39569;51.090;-1.786;2023-05-16T00:05:34;101793.72;;;17.27;40.88
53246;BME280;39569;51.090;-1.786;2023-05-16T00:08:02;101799.16;;;17.13;41.32
53246;BME280;39569;51.090;-1.786;2023-05-16T00:10:29;101802.06;;;17.11;41.26
53246;BME280;39569;51.090;-1.786;2023-05-16T00:12:55;101803.28;;;17.09;41.23
53246;BME280;39569;51.090;-1.786;2023-05-16T00:15:23;101805.91;;;17.02;41.44
53246;BME280;39569;51.090;-1.786;2023-05-16T00:17:49;101803.28;;;17.09;41.41
53246;BME280;39569;51.090;-1.786;2023-05-16T00:20:18;101802.53;;;17.15;41.35
53246;BME280;39569;51.090;-1.786;2023-05-16T00:22:47;101796.91;;;16.95;41.63
53246;BME280;39569;51.090;-1.786;2023-05-16T00:25:14;101794.22;;;16.95;41.80
53246;BME280;39569;51.090;-1.786;2023-05-16T00:27:41;101799.03;;;17.00;41.88
53246;BME280;39569;51.090;-1.786;2023-05-16T00:30:08;101796.97;;;17.02;41.95
53246;BME280;39569;51.090;-1.786;2023-05-16T00:32:35;101797.94;;;16.80;42.22
53246;BME280;39569;51.090;-1.786;2023-05-16T00:35:03;101792.19;;;16.83;42.40
53246;BME280;39569;51.090;-1.786;2023-05-16T00:37:31;101797.09;;;16.94;42.52
53246;BME280;39569;51.090;-1.786;2023-05-16T00:39:58;101793.72;;;17.06;41.92
53246;BME280;39569;51.090;-1.786;2023-05-16T00:42:25;101794.91;;;17.04;42.13
53246;BME280;39569;51.090;-1.786;2023-05-16T00:44:52;101801.91;;;16.98;42.13
53246;BME280;39569;51.090;-1.786;2023-05-16T00:47:18;101804.34;;;16.93;42.56
53246;BME280;39569;51.090;-1.786;2023-05-16T00:49:45;101802.81;;;17.05;42.21
53246;BME280;39569;51.090;-1.786;2023-05-16T00:52:12;101803.09;;;17.10;42.45
53246;BME280;39569;51.090;-1.786;2023-05-16T00:54:41;101809.47;;;17.24;42.10
53246;BME280;39569;51.090;-1.786;2023-05-16T00:57:07;101806.84;;;17.30;41.70
53246;BME280;39569;51.090;-1.786;2023-05-16T00:59:34;101807.88;;;17.29;41.88
53246;BME280;39569;51.090;-1.786;2023-05-16T01:02:01;101806.09;;;17.36;41.46
53246;BME280;39569;51.090;-1.786;2023-05-16T01:04:28;101798.75;;;17.30;41.39
53246;BME280;39569;51.090;-1.786;2023-05-16T01:06:56;101801.00;;;17.27;41.83
53246;BME280;39569;51.090;-1.786;2023-05-16T01:09:23;101803.41;;;17.22;41.84
53246;BME280;39569;51.090;-1.786;2023-05-16T01:11:57;101806.22;;;17.28;41.86
53246;BME280;39569;51.090;-1.786;2023-05-16T01:14:36;101809.56;;;17.30;42.08
53246;BME280;39569;51.090;-1.786;2023-05-16T01:17:07;101805.09;;;17.44;42.04
53246;BME280;39569;51.090;-1.786;2023-05-16T01:19:53;101812.41;;;17.43;41.95
53246;BME280;39569;51.090;-1.786;2023-05-16T01:22:29;101815.16;;;17.29;42.12
53246;BME280;39569;51.090;-1.786;2023-05-16T01:25:04;101808.50;;;17.31;41.95
53246;BME280;39569;51.090;-1.786;2023-05-16T01:27:37;101812.44;;;16.93;42.38
53246;BME280;39569;51.090;-1.786;2023-05-16T01:30:15;101820.53;;;16.93;42.35
53246;BME280;39569;51.090;-1.786;2023-05-16T01:32:42;101814.81;;;16.67;43.37
53246;BME280;39569;51.090;-1.786;2023-05-16T01:35:12;101813.94;;;16.96;42.52
53246;BME280;39569;51.090;-1.786;2023-05-16T01:37:44;101812.22;;;17.09;42.06
53246;BME280;39569;51.090;-1.786;2023-05-16T01:40:17;101812.03;;;17.11;42.15
53246;BME280;39569;51.090;-1.786;2023-05-16T01:42:49;101818.00;;;17.06;41.98
53246;BME280;39569;51.090;-1.786;2023-05-16T01:45:21;101808.81;;;17.01;42.41
53246;BME280;39569;51.090;-1.786;2023-05-16T01:47:53;101805.66;;;16.97;42.14
53246;BME280;39569;51.090;-1.786;2023-05-16T01:50:24;101803.09;;;16.75;42.55
53246;BME280;39569;51.090;-1.786;2023-05-16T01:52:58;101806.31;;;16.26;43.50
53246;BME280;39569;51.090;-1.786;2023-05-16T01:55:37;101809.59;;;16.36;43.36
53246;BME280;39569;51.090;-1.786;2023-05-16T01:58:07;101814.22;;;16.42;43.00
53246;BME280;39569;51.090;-1.786;2023-05-16T02:00:35;101800.38;;;16.31;42.83
53246;BME280;39569;51.090;-1.786;2023-05-16T02:03:02;101802.69;;;16.34;42.80
53246;BME280;39569;51.090;-1.786;2023-05-16T02:05:29;101803.63;;;16.26;42.97
53246;BME280;39569;51.090;-1.786;2023-05-16T02:07:55;101806.50;;;16.25;42.69
53246;BME280;39569;51.090;-1.786;2023-05-16T02:10:22;101811.78;;;16.18;42.72
53246;BME280;39569;51.090;-1.786;2023-05-16T02:12:50;101825.25;;;16.18;43.01
53246;BME280;39569;51.090;-1.786;2023-05-16T02:15:19;101814.94;;;16.22;43.10
53246;BME280;39569;51.090;-1.786;2023-05-16T02:17:46;101821.44;;;16.13;42.94
53246;BME280;39569;51.090;-1.786;2023-05-16T02:20:12;101812.03;;;15.94;43.00
53246;BME280;39569;51.090;-1.786;2023-05-16T02:22:39;101813.75;;;16.10;43.10
53246;BME280;39569;51.090;-1.786;2023-05-16T02:25:07;101812.22;;;16.07;43.85
53246;BME280;39569;51.090;-1.786;2023-05-16T02:27:34;101804.41;;;15.98;44.14
53246;BME280;39569;51.090;-1.786;2023-05-16T02:30:02;101809.34;;;16.09;43.74
53246;BME280;39569;51.090;-1.786;2023-05-16T02:32:31;101811.31;;;16.15;43.74
53246;BME280;39569;51.090;-1.786;2023-05-16T02:34:58;101809.16;;;15.96;43.80
53246;BME280;39569;51.090;-1.786;2023-05-16T02:37:24;101810.56;;;15.92;43.52
53246;BME280;39569;51.090;-1.786;2023-05-16T02:39:51;101810.75;;;15.90;43.66
53246;BME280;39569;51.090;-1.786;2023-05-16T02:42:18;101812.69;;;15.96;43.54
53246;BME280;39569;51.090;-1.786;2023-05-16T02:44:45;101813.25;;;15.92;43.28
53246;BME280;39569;51.090;-1.786;2023-05-16T02:47:11;101815.53;;;15.80;43.33
53246;BME280;39569;51.090;-1.786;2023-05-16T02:49:39;101807.38;;;15.88;43.46
53246;BME280;39569;51.090;-1.786;2023-05-16T02:52:06;101807.16;;;15.75;43.63
53246;BME280;39569;51.090;-1.786;2023-05-16T02:54:33;101796.25;;;15.68;43.85
53246;BME280;39569;51.090;-1.786;2023-05-16T02:57:00;101801.63;;;15.23;45.08
53246;BME280;39569;51.090;-1.786;2023-05-16T02:59:27;101800.03;;;15.59;44.75
53246;BME280;39569;51.090;-1.786;2023-05-16T03:01:53;101799.75;;;15.77;44.31
53246;BME280;39569;51.090;-1.786;2023-05-16T03:04:20;101796.03;;;15.93;43.96
53246;BME280;39569;51.090;-1.786;2023-05-16T03:06:49;101797.16;;;15.98;44.10
53246;BME280;39569;51.090;-1.786;2023-05-16T03:09:16;101803.88;;;16.02;43.73
53246;BME280;39569;51.090;-1.786;2023-05-16T03:11:43;101798.09;;;16.05;43.44
53246;BME280;39569;51.090;-1.786;2023-05-16T03:14:10;101804.06;;;16.01;43.42
53246;BME280;39569;51.090;-1.786;2023-05-16T03:16:37;101797.81;;;16.00;43.52
53246;BME280;39569;51.090;-1.786;2023-05-16T03:19:06;101800.25;;;16.10;43.97
53246;BME280;39569;51.090;-1.786;2023-05-16T03:21:32;101801.91;;;15.96;43.75
53246;BME280;39569;51.090;-1.786;2023-05-16T03:24:01;101809.63;;;15.99;43.66
53246;BME280;39569;51.090;-1.786;2023-05-16T03:26:28;101808.38;;;15.87;43.86
53246;BME280;39569;51.090;-1.786;2023-05-16T03:28:54;101809.50;;;15.93;43.50
53246;BME280;39569;51.090;-1.786;2023-05-16T03:31:21;101804.91;;;16.01;43.52
53246;BME280;39569;51.090;-1.786;2023-05-16T03:33:48;101808.56;;;15.86;43.75
53246;BME280;39569;51.090;-1.786;2023-05-16T03:36:15;101807.72;;;15.85;43.46
53246;BME280;39569;51.090;-1.786;2023-05-16T03:38:42;101796.69;;;15.95;43.40
53246;BME280;39569;51.090;-1.786;2023-05-16T03:41:10;101796.22;;;15.91;44.10
53246;BME280;39569;51.090;-1.786;2023-05-16T03:43:36;101800.88;;;15.83;43.89
53246;BME280;39569;51.090;-1.786;2023-05-16T03:46:03;101800.94;;;15.74;44.05
53246;BME280;39569;51.090;-1.786;2023-05-16T03:48:30;101805.03;;;15.85;43.77
53246;BME280;39569;51.090;-1.786;2023-05-16T03:50:57;101809.22;;;15.88;43.61
53246;BME280;39569;51.090;-1.786;2023-05-16T03:53:23;101810.75;;;15.90;43.45
53246;BME280;39569;51.090;-1.786;2023-05-16T03:55:50;101802.81;;;15.89;43.38
53246;BME280;39569;51.090;-1.786;2023-05-16T03:58:18;101811.09;;;15.87;43.40
53246;BME280;39569;51.090;-1.786;2023-05-16T04:00:45;101808.75;;;15.84;43.74
53246;BME280;39569;51.090;-1.786;2023-05-16T04:03:12;101814.03;;;15.77;43.76
53246;BME280;39569;51.090;-1.786;2023-05-16T04:05:38;101817.25;;;15.96;43.57
53246;BME280;39569;51.090;-1.786;2023-05-16T04:08:05;101820.91;;;15.80;43.72
53246;BME280;39569;51.090;-1.786;2023-05-16T04:10:32;101830.19;;;15.77;43.71
53246;BME280;39569;51.090;-1.786;2023-05-16T04:12:59;101829.44;;;15.69;43.55
53246;BME280;39569;51.090;-1.786;2023-05-16T04:15:27;101822.56;;;15.81;43.29
53246;BME280;39569;51.090;-1.786;2023-05-16T04:17:54;101834.63;;;15.70;43.46
53246;BME280;39569;51.090;-1.786;2023-05-16T04:20:21;101839.53;;;15.67;43.40
53246;BME280;39569;51.090;-1.786;2023-05-16T04:22:47;101826.72;;;15.69;43.38
53246;BME280;39569;51.090;-1.786;2023-05-16T04:25:15;101839.69;;;15.51;43.55
53246;BME280;39569;51.090;-1.786;2023-05-16T04:27:41;101841.63;;;15.57;43.33
53246;BME280;39569;51.090;-1.786;2023-05-16T04:30:09;101838.94;;;15.57;43.54
53246;BME280;39569;51.090;-1.786;2023-05-16T04:32:38;101825.59;;;15.41;43.58
53246;BME280;39569;51.090;-1.786;2023-05-16T04:35:05;101842.94;;;15.61;44.07
53246;BME280;39569;51.090;-1.786;2023-05-16T04:37:33;101839.59;;;15.59;44.14
53246;BME280;39569;51.090;-1.786;2023-05-16T04:40:01;101834.94;;;15.53;44.28
53246;BME280;39569;51.090;-1.786;2023-05-16T04:42:28;101836.91;;;15.59;43.79
53246;BME280;39569;51.090;-1.786;2023-05-16T04:44:55;101840.34;;;15.53;44.03
53246;BME280;39569;51.090;-1.786;2023-05-16T04:47:22;101840.19;;;15.46;43.93
53246;BME280;39569;51.090;-1.786;2023-05-16T04:49:50;101837.94;;;15.58;43.88
53246;BME280;39569;51.090;-1.786;2023-05-16T04:52:17;101841.75;;;15.63;43.94
53246;BME280;39569;51.090;-1.786;2023-05-16T04:54:44;101838.94;;;15.57;44.17
53246;BME280;39569;51.090;-1.786;2023-05-16T04:57:11;101843.19;;;15.51;44.21
53246;BME280;39569;51.090;-1.786;2023-05-16T04:59:38;101850.94;;;15.54;43.97
53246;BME280;39569;51.090;-1.786;2023-05-16T05:02:04;101850.75;;;15.56;43.84
53246;BME280;39569;51.090;-1.786;2023-05-16T05:04:31;101847.63;;;15.67;43.75
53246;BME280;39569;51.090;-1.786;2023-05-16T05:07:00;101851.22;;;15.82;43.98
53246;BME280;39569;51.090;-1.786;2023-05-16T05:09:27;101853.63;;;15.77;43.91
53246;BME280;39569;51.090;-1.786;2023-05-16T05:11:53;101856.94;;;15.79;43.76
53246;BME280;39569;51.090;-1.786;2023-05-16T05:14:20;101856.41;;;15.84;43.54
53246;BME280;39569;51.090;-1.786;2023-05-16T05:16:47;101852.16;;;15.89;43.75
53246;BME280;39569;51.090;-1.786;2023-05-16T05:19:14;101860.91;;;15.91;43.50
53246;BME280;39569;51.090;-1.786;2023-05-16T05:21:40;101862.13;;;16.03;43.43
53246;BME280;39569;51.090;-1.786;2023-05-16T05:24:09;101859.38;;;16.26;43.19
53246;BME280;39569;51.090;-1.786;2023-05-16T05:26:35;101859.03;;;16.29;43.01
53246;BME280;39569;51.090;-1.786;2023-05-16T05:29:02;101852.16;;;16.41;43.28
53246;BME280;39569;51.090;-1.786;2023-05-16T05:31:29;101865.69;;;16.55;42.50
53246;BME280;39569;51.090;-1.786;2023-05-16T05:33:58;101861.97;;;16.71;42.08
53246;BME280;39569;51.090;-1.786;2023-05-16T05:36:24;101869.78;;;16.81;42.23
53246;BME280;39569;51.090;-1.786;2023-05-16T05:38:51;101868.00;;;17.02;41.91
53246;BME280;39569;51.090;-1.786;2023-05-16T05:41:19;101867.13;;;17.16;41.72
53246;BME280;39569;51.090;-1.786;2023-05-16T05:43:46;101869.53;;;17.26;42.23
53246;BME280;39569;51.090;-1.786;2023-05-16T05:46:13;101871.09;;;16.99;42.41
53246;BME280;39569;51.090;-1.786;2023-05-16T05:48:41;101871.97;;;17.21;42.27
53246;BME280;39569;51.090;-1.786;2023-05-16T05:51:08;101870.72;;;17.38;41.35
53246;BME280;39569;51.090;-1.786;2023-05-16T05:53:35;101882.53;;;17.37;41.49
53246;BME280;39569;51.090;-1.786;2023-05-16T05:56:01;101885.78;;;17.47;42.09
53246;BME280;39569;51.090;-1.786;2023-05-16T05:58:29;101884.81;;;17.69;41.79
53246;BME280;39569;51.090;-1.786;2023-05-16T06:00:56;101891.00;;;17.84;41.55
53246;BME280;39569;51.090;-1.786;2023-05-16T06:03:23;101889.75;;;17.87;41.73
53246;BME280;39569;51.090;-1.786;2023-05-16T06:05:50;101892.09;;;17.90;41.61
53246;BME280;39569;51.090;-1.786;2023-05-16T06:08:16;101893.41;;;18.00;41.33
53246;BME280;39569;51.090;-1.786;2023-05-16T06:10:43;101897.03;;;18.35;41.09
53246;BME280;39569;51.090;-1.786;2023-05-16T06:13:10;101906.50;;;17.97;41.27
53246;BME280;39569;51.090;-1.786;2023-05-16T06:15:38;101902.38;;;18.49;40.21
53246;BME280;39569;51.090;-1.786;2023-05-16T06:18:05;101899.38;;;18.38;40.02
53246;BME280;39569;51.090;-1.786;2023-05-16T06:20:32;101901.75;;;18.75;39.41
53246;BME280;39569;51.090;-1.786;2023-05-16T06:23:00;101912.72;;;18.74;39.76
53246;BME280;39569;51.090;-1.786;2023-05-16T06:25:26;101907.38;;;18.25;40.88
53246;BME280;39569;51.090;-1.786;2023-05-16T06:27:54;101901.94;;;18.46;40.17
53246;BME280;39569;51.090;-1.786;2023-05-16T06:30:21;101905.19;;;17.93;40.84
53246;BME280;39569;51.090;-1.786;2023-05-16T06:32:49;101904.91;;;18.85;39.29
53246;BME280;39569;51.090;-1.786;2023-05-16T06:35:16;101902.28;;;18.98;39.40
53246;BME280;39569;51.090;-1.786;2023-05-16T06:37:43;101904.25;;;19.24;39.25
53246;BME280;39569;51.090;-1.786;2023-05-16T06:40:10;101909.63;;;19.11;39.42
53246;BME280;39569;51.090;-1.786;2023-05-16T06:42:37;101901.47;;;19.04;39.38
53246;BME280;39569;51.090;-1.786;2023-05-16T06:45:06;101903.78;;;19.54;39.42
53246;BME280;39569;51.090;-1.786;2023-05-16T06:47:33;101916.44;;;19.41;38.98
53246;BME280;39569;51.090;-1.786;2023-05-16T06:50:01;101907.81;;;19.91;38.51
53246;BME280;39569;51.090;-1.786;2023-05-16T06:52:28;101907.78;;;19.72;38.43
53246;BME280;39569;51.090;-1.786;2023-05-16T06:54:54;101911.59;;;20.03;38.12
53246;BME280;39569;51.090;-1.786;2023-05-16T06:57:21;101912.03;;;20.33;38.08
53246;BME280;39569;51.090;-1.786;2023-05-16T06:59:48;101916.41;;;20.53;37.68
53246;BME280;39569;51.090;-1.786;2023-05-16T07:02:15;101902.78;;;20.86;37.15
53246;BME280;39569;51.090;-1.786;2023-05-16T07:04:41;101903.72;;;20.21;37.14
53246;BME280;39569;51.090;-1.786;2023-05-16T07:07:09;101904.75;;;20.40;37.54
53246;BME280;39569;51.090;-1.786;2023-05-16T07:09:37;101906.78;;;20.71;37.79
53246;BME280;39569;51.090;-1.786;2023-05-16T07:12:05;101900.34;;;20.59;37.39
53246;BME280;39569;51.090;-1.786;2023-05-16T07:14:31;101905.88;;;21.09;36.98
53246;BME280;39569;51.090;-1.786;2023-05-16T07:16:58;101916.53;;;21.17;36.99
53246;BME280;39569;51.090;-1.786;2023-05-16T07:19:25;101912.50;;;21.26;36.60
53246;BME280;39569;51.090;-1.786;2023-05-16T07:21:52;101918.44;;;20.91;36.66
53246;BME280;39569;51.090;-1.786;2023-05-16T07:24:20;101913.13;;;21.28;36.60
53246;BME280;39569;51.090;-1.786;2023-05-16T07:26:47;101916.75;;;21.16;36.68
53246;BME280;39569;51.090;-1.786;2023-05-16T07:29:14;101914.09;;;21.47;36.59
53246;BME280;39569;51.090;-1.786;2023-05-16T07:31:41;101918.44;;;21.04;35.38
53246;BME280;39569;51.090;-1.786;2023-05-16T07:34:08;101919.47;;;21.09;36.54
53246;BME280;39569;51.090;-1.786;2023-05-16T07:36:35;101918.78;;;21.27;35.83
53246;BME280;39569;51.090;-1.786;2023-05-16T07:39:01;101917.75;;;22.28;34.44
53246;BME280;39569;51.090;-1.786;2023-05-16T07:41:30;101921.09;;;22.30;34.38
53246;BME280;39569;51.090;-1.786;2023-05-16T07:43:56;101921.50;;;21.65;34.65
53246;BME280;39569;51.090;-1.786;2023-05-16T07:46:23;101921.94;;;22.30;33.70
53246;BME280;39569;51.090;-1.786;2023-05-16T07:48:50;101925.09;;;22.52;33.59
53246;BME280;39569;51.090;-1.786;2023-05-16T07:51:17;101916.16;;;23.24;33.26
53246;BME280;39569;51.090;-1.786;2023-05-16T07:53:44;101915.25;;;23.48;32.56
53246;BME280;39569;51.090;-1.786;2023-05-16T07:56:10;101920.56;;;23.43;33.22
53246;BME280;39569;51.090;-1.786;2023-05-16T07:58:40;101924.06;;;23.32;32.48
53246;BME280;39569;51.090;-1.786;2023-05-16T08:01:06;101924.59;;;23.70;32.14
53246;BME280;39569;51.090;-1.786;2023-05-16T08:03:34;101922.88;;;23.87;31.79
53246;BME280;39569;51.090;-1.786;2023-05-16T08:06:01;101930.22;;;23.87;31.43
53246;BME280;39569;51.090;-1.786;2023-05-16T08:08:27;101925.47;;;23.34;32.13
53246;BME280;39569;51.090;-1.786;2023-05-16T08:10:55;101921.91;;;24.11;31.00
53246;BME280;39569;51.090;-1.786;2023-05-16T08:13:22;101919.66;;;23.90;32.53
53246;BME280;39569;51.090;-1.786;2023-05-16T08:15:50;101929.97;;;24.18;32.39
53246;BME280;39569;51.090;-1.786;2023-05-16T08:18:17;101927.13;;;24.13;32.10
53246;BME280;39569;51.090;-1.786;2023-05-16T08:20:43;101930.56;;;24.20;30.50
53246;BME280;39569;51.090;-1.786;2023-05-16T08:23:10;101928.22;;;24.12;30.60
53246;BME280;39569;51.090;-1.786;2023-05-16T08:25:37;101922.88;;;25.09;30.24
53246;BME280;39569;51.090;-1.786;2023-05-16T08:28:04;101922.19;;;25.14;30.37
53246;BME280;39569;51.090;-1.786;2023-05-16T08:30:31;101926.56;;;24.46;31.21
53246;BME280;39569;51.090;-1.786;2023-05-16T08:32:59;101935.44;;;23.88;31.78
53246;BME280;39569;51.090;-1.786;2023-05-16T08:35:29;101929.19;;;23.99;31.12
53246;BME280;39569;51.090;-1.786;2023-05-16T08:37:55;101929.16;;;24.17;31.76
53246;BME280;39569;51.090;-1.786;2023-05-16T08:40:24;101931.22;;;24.68;30.73
53246;BME280;39569;51.090;-1.786;2023-05-16T08:42:51;101923.75;;;24.87;30.68
53246;BME280;39569;51.090;-1.786;2023-05-16T08:45:19;101915.38;;;25.16;31.27
53246;BME280;39569;51.090;-1.786;2023-05-16T08:47:48;101922.94;;;24.75;30.68
53246;BME280;39569;51.090;-1.786;2023-05-16T08:50:17;101918.94;;;25.28;29.23
53246;BME280;39569;51.090;-1.786;2023-05-16T08:52:46;101920.22;;;25.49;28.57
53246;BME280;39569;51.090;-1.786;2023-05-16T08:55:14;101921.34;;;25.02;31.21
53246;BME280;39569;51.090;-1.786;2023-05-16T08:57:42;101915.78;;;25.48;28.50
53246;BME280;39569;51.090;-1.786;2023-05-16T09:00:10;101913.69;;;25.39;28.86
53246;BME280;39569;51.090;-1.786;2023-05-16T09:02:38;101910.13;;;25.38;31.03
53246;BME280;39569;51.090;-1.786;2023-05-16T09:05:07;101913.72;;;25.15;30.17
53246;BME280;39569;51.090;-1.786;2023-05-16T09:07:36;101920.25;;;26.27;32.14
53246;BME280;39569;51.090;-1.786;2023-05-16T09:10:03;101919.84;;;26.52;30.60
53246;BME280;39569;51.090;-1.786;2023-05-16T09:12:31;101920.03;;;27.21;28.14
53246;BME280;39569;51.090;-1.786;2023-05-16T09:14:59;101915.50;;;26.89;26.56
53246;BME280;39569;51.090;-1.786;2023-05-16T09:17:33;101914.38;;;27.28;28.46
53246;BME280;39569;51.090;-1.786;2023-05-16T09:20:07;101919.34;;;28.01;27.74
53246;BME280;39569;51.090;-1.786;2023-05-16T09:22:36;101916.72;;;26.98;28.01
53246;BME280;39569;51.090;-1.786;2023-05-16T09:25:03;101910.47;;;27.24;27.80
53246;BME280;39569;51.090;-1.786;2023-05-16T09:27:30;101918.88;;;26.96;28.58
53246;BME280;39569;51.090;-1.786;2023-05-16T09:29:57;101927.25;;;27.28;28.29
53246;BME280;39569;51.090;-1.786;2023-05-16T09:32:25;101922.41;;;28.73;26.73
53246;BME280;39569;51.090;-1.786;2023-05-16T09:34:52;101922.97;;;28.06;28.28
53246;BME280;39569;51.090;-1.786;2023-05-16T09:37:22;101923.75;;;28.34;26.74
53246;BME280;39569;51.090;-1.786;2023-05-16T09:39:51;101918.03;;;27.34;26.94
53246;BME280;39569;51.090;-1.786;2023-05-16T09:42:19;101924.91;;;26.60;26.85
53246;BME280;39569;51.090;-1.786;2023-05-16T09:44:48;101925.75;;;27.85;26.41
53246;BME280;39569;51.090;-1.786;2023-05-16T09:47:15;101913.91;;;28.79;24.50
53246;BME280;39569;51.090;-1.786;2023-05-16T09:49:42;101918.66;;;28.52;27.47
53246;BME280;39569;51.090;-1.786;2023-05-16T09:52:09;101916.97;;;28.83;27.36
53246;BME280;39569;51.090;-1.786;2023-05-16T09:54:36;101911.31;;;29.04;24.83
53246;BME280;39569;51.090;-1.786;2023-05-16T09:57:04;101922.94;;;28.70;26.67
53246;BME280;39569;51.090;-1.786;2023-05-16T09:59:34;101916.22;;;27.66;25.41
53246;BME280;39569;51.090;-1.786;2023-05-16T10:02:02;101910.66;;;26.96;26.78
53246;BME280;39569;51.090;-1.786;2023-05-16T10:04:30;101922.91;;;26.72;28.09
53246;BME280;39569;51.090;-1.786;2023-05-16T10:07:00;101917.75;;;26.75;28.69
53246;BME280;39569;51.090;-1.786;2023-05-16T10:09:28;101911.84;;;26.83;26.97
53246;BME280;39569;51.090;-1.786;2023-05-16T10:11:55;101916.81;;;26.86;28.59
53246;BME280;39569;51.090;-1.786;2023-05-16T10:14:24;101914.06;;;25.59;28.97
53246;BME280;39569;51.090;-1.786;2023-05-16T10:16:51;101919.25;;;25.72;29.32
53246;BME280;39569;51.090;-1.786;2023-05-16T10:19:20;101911.59;;;26.68;28.65
53246;BME280;39569;51.090;-1.786;2023-05-16T10:21:50;101920.63;;;26.31;28.20
53246;BME280;39569;51.090;-1.786;2023-05-16T10:24:22;101921.44;;;26.31;27.46
53246;BME280;39569;51.090;-1.786;2023-05-16T10:26:52;101918.03;;;25.79;28.91
53246;BME280;39569;51.090;-1.786;2023-05-16T10:29:19;101910.47;;;27.02;28.28
53246;BME280;39569;51.090;-1.786;2023-05-16T10:31:48;101915.09;;;27.40;28.23
53246;BME280;39569;51.090;-1.786;2023-05-16T10:34:15;101917.19;;;26.57;28.02
53246;BME280;39569;51.090;-1.786;2023-05-16T10:36:43;101912.84;;;26.61;27.48
53246;BME280;39569;51.090;-1.786;2023-05-16T10:39:11;101913.75;;;27.21;27.04
53246;BME280;39569;51.090;-1.786;2023-05-16T10:41:39;101924.63;;;28.39;27.27
53246;BME280;39569;51.090;-1.786;2023-05-16T10:44:12;101911.06;;;27.48;26.50
53246;BME280;39569;51.090;-1.786;2023-05-16T10:46:40;101913.69;;;27.86;26.64
53246;BME280;39569;51.090;-1.786;2023-05-16T10:49:22;101911.75;;;27.86;25.93
53246;BME280;39569;51.090;-1.786;2023-05-16T10:52:02;101913.91;;;27.14;27.14
53246;BME280;39569;51.090;-1.786;2023-05-16T10:54:37;101905.69;;;28.11;25.33
53246;BME280;39569;51.090;-1.786;2023-05-16T10:57:07;101913.03;;;28.00;26.74
53246;BME280;39569;51.090;-1.786;2023-05-16T10:59:42;101916.28;;;27.49;26.41
53246;BME280;39569;51.090;-1.786;2023-05-16T11:02:24;101913.63;;;27.54;28.60
53246;BME280;39569;51.090;-1.786;2023-05-16T11:04:54;101913.13;;;28.47;25.97
53246;BME280;39569;51.090;-1.786;2023-05-16T11:07:23;101910.28;;;27.79;26.74
53246;BME280;39569;51.090;-1.786;2023-05-16T11:10:01;101898.19;;;29.22;25.82
53246;BME280;39569;51.090;-1.786;2023-05-16T11:12:45;101908.59;;;28.63;26.43
53246;BME280;39569;51.090;-1.786;2023-05-16T11:15:20;101901.56;;;28.45;25.86
53246;BME280;39569;51.090;-1.786;2023-05-16T11:17:47;101898.38;;;29.05;26.35
53246;BME280;39569;51.090;-1.786;2023-05-16T11:20:26;101886.28;;;29.11;26.05
53246;BME280;39569;51.090;-1.786;2023-05-16T11:23:17;101881.31;;;30.00;23.53
53246;BME280;39569;51.090;-1.786;2023-05-16T11:25:46;101888.47;;;30.01;23.28
53246;BME280;39569;51.090;-1.786;2023-05-16T11:28:15;101883.28;;;30.40;24.31
53246;BME280;39569;51.090;-1.786;2023-05-16T11:30:43;101879.88;;;30.88;25.64
53246;BME280;39569;51.090;-1.786;2023-05-16T11:33:11;101884.59;;;30.62;24.07
53246;BME280;39569;51.090;-1.786;2023-05-16T11:35:39;101882.03;;;30.96;23.90
53246;BME280;39569;51.090;-1.786;2023-05-16T11:38:11;101877.44;;;30.61;25.15
53246;BME280;39569;51.090;-1.786;2023-05-16T11:40:41;101880.69;;;30.83;23.13
53246;BME280;39569;51.090;-1.786;2023-05-16T11:43:08;101869.91;;;29.51;25.19
53246;BME280;39569;51.090;-1.786;2023-05-16T11:45:36;101880.38;;;31.00;25.34
53246;BME280;39569;51.090;-1.786;2023-05-16T11:48:03;101880.94;;;30.97;24.65
53246;BME280;39569;51.090;-1.786;2023-05-16T11:50:33;101890.03;;;31.03;23.30
53246;BME280;39569;51.090;-1.786;2023-05-16T11:53:01;101885.59;;;31.02;24.49
53246;BME280;39569;51.090;-1.786;2023-05-16T11:55:29;101886.69;;;31.06;24.37
53246;BME280;39569;51.090;-1.786;2023-05-16T11:57:57;101875.16;;;30.73;24.47
53246;BME280;39569;51.090;-1.786;2023-05-16T12:00:26;101874.53;;;31.12;22.10
53246;BME280;39569;51.090;-1.786;2023-05-16T12:02:54;101879.59;;;32.26;22.61
53246;BME280;39569;51.090;-1.786;2023-05-16T12:05:21;101882.44;;;31.77;21.94
53246;BME280;39569;51.090;-1.786;2023-05-16T12:07:50;101886.44;;;31.02;22.69
53246;BME280;39569;51.090;-1.786;2023-05-16T12:10:20;101880.66;;;32.30;21.65
53246;BME280;39569;51.090;-1.786;2023-05-16T12:12:48;101887.34;;;30.62;23.75
53246;BME280;39569;51.090;-1.786;2023-05-16T12:15:17;101885.13;;;29.64;25.09
53246;BME280;39569;51.090;-1.786;2023-05-16T12:17:44;101876.59;;;31.35;23.36
53246;BME280;39569;51.090;-1.786;2023-05-16T12:20:12;101881.03;;;29.91;24.22
53246;BME280;39569;51.090;-1.786;2023-05-16T12:22:41;101884.06;;;30.50;24.97
53246;BME280;39569;51.090;-1.786;2023-05-16T12:25:23;101879.69;;;31.23;25.85
53246;BME280;39569;51.090;-1.786;2023-05-16T12:27:52;101866.41;;;31.79;23.96
53246;BME280;39569;51.090;-1.786;2023-05-16T12:30:21;101859.59;;;33.10;21.60
53246;BME280;39569;51.090;-1.786;2023-05-16T12:32:52;101858.00;;;32.56;20.07
53246;BME280;39569;51.090;-1.786;2023-05-16T12:35:19;101882.25;;;31.10;23.19
53246;BME280;39569;51.090;-1.786;2023-05-16T12:37:48;101869.09;;;32.80;23.09
53246;BME280;39569;51.090;-1.786;2023-05-16T12:40:15;101860.94;;;33.54;20.91
53246;BME280;39569;51.090;-1.786;2023-05-16T12:42:43;101868.56;;;31.48;22.77
53246;BME280;39569;51.090;-1.786;2023-05-16T12:45:14;101864.22;;;30.38;23.27